METAR Data
IDs: Format: Raw Decoded Include TAF

Data at: 1432 UTC 22 Apr 2021

KAAF 221353Z AUTO 06008KT 10SM CLR 14/00 A3020 RMK AO2 SLP225 T01390000
KAAF 221253Z AUTO 05010KT 10SM CLR 12/M01 A3018 RMK AO2 SLP221 T01171006
KAAF 221153Z AUTO 05006KT 10SM CLR 10/02 A3017 RMK AO2 SLP215 T01000017 10144 20094 53025
KAAF 221053Z AUTO 04009KT 10SM CLR 10/01 A3014 RMK AO2 SLP205 T01000006
KAAF 220953Z AUTO 03013G20KT 10SM CLR 11/01 A3011 RMK AO2 SLP194 T01060011 $
KAAF 220853Z AUTO 02016KT 10SM CLR 12/02 A3009 RMK AO2 SLP190 T01170017 56003 $
KAAF 220753Z AUTO 02013KT 10SM CLR 12/02 A3009 RMK AO2 SLP190 T01220022 $
KAAF 220653Z AUTO 02015G25KT 10SM CLR 13/02 A3009 RMK AO2 SLP190 T01330017 $
KAAF 220553Z AUTO 02017G23KT 10SM CLR 14/02 A3010 RMK AO2 SLP192 T01440022 10222 20144 51005 $
KAAF 220453Z AUTO 01013G20KT 10SM CLR 16/04 A3010 RMK AO2 SLP191 T01610039 402830139 $
KAAF 220353Z AUTO 35010KT 10SM CLR 17/06 A3009 RMK AO2 SLP190 T01720056 $
KAAF 220253Z AUTO 35010KT 10SM CLR 18/08 A3009 RMK AO2 SLP188 T01830078 53026 $
KAAF 220153Z AUTO 31006KT 10SM CLR 18/14 A3005 RMK AO2 SLP175 T01830144 $
KAAF 220053Z AUTO 30006KT 10SM CLR 19/13 A3003 RMK AO2 SLP169 T01940133 $
KAAF 212353Z AUTO 29010KT 10SM 22/12 A3001 RMK AO2 SLP162 T02220122 10283 20222 $
KAAF 212253Z AUTO 30013KT 10SM CLR 24/11 A2999 RMK AO2 SLP157 T02440106
KAAF 212153Z AUTO 29012KT 10SM CLR 26/11 A2999 RMK AO2 SLP154 T02560111
KAAF 212053Z AUTO 29019G23KT 10SM CLR 27/09 A2998 RMK AO2 SLP153 T02720094 56012
KAAF 211953Z AUTO 29011G20KT 10SM CLR 28/12 A2999 RMK AO2 SLP155 T02780117
KAAF 211853Z AUTO 30016G21KT 10SM CLR 28/11 A3001 RMK AO2 SLP160 T02780111
KAAF 211753Z AUTO 29015G24KT 10SM CLR 28/10 A3002 RMK AO2 SLP165 T02780100 10278 20161 58004
KAAF 211653Z AUTO 32011G19KT 10SM CLR 27/11 A3003 RMK AO2 SLP169 T02720106
KAAF 211553Z AUTO 34014G18KT 10SM CLR 26/11 A3004 RMK AO2 SLP171 T02610111
KAAF 211453Z AUTO 33008KT 270V350 10SM CLR 25/13 A3003 RMK AO2 SLP169 T02500128 50007
KAAF 211353Z AUTO 32007KT 10SM CLR 23/13 A3003 RMK AO2 SLP169 T02280128
KAAF 211253Z AUTO 33006KT 10SM CLR 19/14 A3002 RMK AO2 SLP166 T01940144
KAAF 211153Z AUTO 32005KT 10SM CLR 16/14 A3001 RMK AO2 SLP162 T01610144 10161 20139 53010
KAAF 211053Z AUTO 33003KT 10SM CLR 15/14 A2999 RMK AO2 SLP156 T01500139
KAAF 210953Z AUTO 32003KT 10SM CLR 14/13 A2998 RMK AO2 SLP153 T01390128
KAAF 210853Z AUTO 00000KT 10SM CLR 16/14 A2998 RMK AO2 SLP152 T01610144 55001
KAAF 210753Z AUTO 33003KT 10SM CLR 16/15 A2997 RMK AO2 SLP150 T01610150
KAAF 210653Z AUTO 33003KT 10SM CLR 16/15 A2997 RMK AO2 SLP150 T01610150
KAAF 210553Z AUTO 32003KT 10SM CLR 16/14 A2998 RMK AO2 SLP153 T01560139 10222 20150 50002
KAAF 210453Z AUTO 32003KT 10SM CLR 16/14 A2999 RMK AO2 SLP154 T01610144 402560144
KAAF 210353Z AUTO 32003KT 10SM CLR 16/14 A2999 RMK AO2 SLP154 T01610144
KAAF 210253Z AUTO 00000KT 10SM CLR 17/14 A2998 RMK AO2 SLP150 T01720144 53022